createdAt,value
2022-08-29T00:03:20.335Z,13.7
2022-08-29T00:09:00.993Z,13.7
2022-08-29T00:14:41.042Z,13.6
2022-08-29T00:20:21.273Z,13.5
2022-08-29T00:26:14.969Z,13.3
2022-08-29T00:31:57.694Z,13.1
2022-08-29T00:37:39.311Z,12.9
2022-08-29T00:43:20.709Z,12.8
2022-08-29T00:49:01.085Z,12.6
2022-08-29T00:54:41.287Z,12.5
2022-08-29T01:00:21.698Z,12.5
2022-08-29T01:06:01.862Z,12.4
2022-08-29T01:11:42.069Z,12.3
2022-08-29T01:17:22.486Z,12.3
2022-08-29T01:23:02.753Z,12.2
2022-08-29T01:28:43.095Z,12.4
2022-08-29T01:34:23.853Z,12.5
2022-08-29T01:40:06.048Z,12.4
2022-08-29T01:45:47.173Z,12.5
2022-08-29T01:51:28.338Z,12.4
2022-08-29T01:57:12.282Z,12.5
2022-08-29T02:02:53.822Z,12.5
2022-08-29T02:08:34.491Z,12.4
2022-08-29T02:14:16.271Z,12.3
2022-08-29T02:20:00.176Z,12.3
2022-08-29T02:25:40.326Z,12.2
2022-08-29T02:31:20.694Z,12.2
2022-08-29T02:37:01.721Z,12.1
2022-08-29T02:42:41.819Z,12.1
2022-08-29T02:48:21.972Z,12.2
2022-08-29T02:54:02.163Z,12.3
2022-08-29T02:59:42.641Z,12.3
2022-08-29T03:05:22.773Z,12.3
2022-08-29T03:11:02.798Z,12.2
2022-08-29T03:16:43.028Z,12.2
2022-08-29T03:22:23.120Z,12.1
2022-08-29T03:28:03.211Z,12
2022-08-29T03:33:43.406Z,12
2022-08-29T03:39:23.738Z,11.9
2022-08-29T03:45:04.209Z,11.8
2022-08-29T03:50:44.737Z,11.6
2022-08-29T03:56:25.004Z,11.5
2022-08-29T04:02:05.195Z,11.3
2022-08-29T04:07:46.292Z,11.2
2022-08-29T04:13:26.590Z,11.1
2022-08-29T04:19:06.994Z,11.1
2022-08-29T04:24:49.059Z,11.2
2022-08-29T04:30:29.345Z,11.1
2022-08-29T04:36:13.147Z,11
2022-08-29T04:41:56.660Z,11.1
2022-08-29T04:47:36.729Z,11.1
2022-08-29T04:53:17.694Z,11.2
2022-08-29T04:58:57.825Z,11.3
2022-08-29T05:04:39.192Z,11.5
2022-08-29T05:10:19.536Z,11.6
2022-08-29T05:15:59.893Z,11.9
2022-08-29T05:21:42.353Z,12.3
2022-08-29T05:27:23.229Z,12.7
2022-08-29T05:33:03.784Z,13.2
2022-08-29T05:38:44.044Z,13.5
2022-08-29T05:44:24.756Z,14
2022-08-29T05:50:05.750Z,15.2
2022-08-29T05:55:47.727Z,16.5
2022-08-29T06:01:28.095Z,16.1
2022-08-29T06:07:13.122Z,15.6
2022-08-29T06:12:53.619Z,15.5
2022-08-29T06:18:35.395Z,15.3
2022-08-29T06:24:19.846Z,15.4
2022-08-29T06:30:01.979Z,16.4
2022-08-29T06:35:43.256Z,17
2022-08-29T06:41:23.973Z,17.3
2022-08-29T06:47:04.623Z,17.9
2022-08-29T06:52:46.954Z,19.6
2022-08-29T06:58:31.585Z,21.8
2022-08-29T07:09:52.375Z,24.7
2022-08-29T07:15:32.781Z,24.5
2022-08-29T07:21:16.972Z,24.5
2022-08-29T07:27:01.607Z,24.7
2022-08-29T07:32:42.143Z,24.7
2022-08-29T07:38:24.941Z,25.1
2022-08-29T07:44:06.443Z,26.7
2022-08-29T07:49:46.805Z,27.5
2022-08-29T07:55:27.538Z,27.2
2022-08-29T08:01:16.028Z,26
2022-08-29T08:07:03.191Z,25.3
2022-08-29T08:12:56.663Z,26.5
2022-08-29T08:18:37.716Z,27.4
2022-08-29T08:24:19.680Z,27.2
2022-08-29T08:30:00.659Z,26.5
2022-08-29T08:35:42.276Z,26.5
2022-08-29T08:41:37.671Z,27.1
2022-08-29T08:47:20.456Z,27.4
2022-08-29T08:53:03.161Z,27.8
2022-08-29T08:58:43.291Z,27.8
2022-08-29T09:04:23.930Z,27.3
2022-08-29T09:10:07.444Z,26.9
2022-08-29T09:15:47.684Z,27.7
2022-08-29T09:21:42.632Z,26.9
2022-08-29T09:27:24.107Z,26.4
2022-08-29T09:33:03.519Z,25
2022-08-29T09:38:49.592Z,25
2022-08-29T09:44:30.993Z,26.2
2022-08-29T09:50:12.039Z,26.1
2022-08-29T09:55:52.763Z,26.7
2022-08-29T10:01:43.477Z,26.8
2022-08-29T10:07:24.795Z,26.1
2022-08-29T10:13:04.973Z,26.4
2022-08-29T10:18:46.104Z,27.7
2022-08-29T10:24:35.620Z,28.7
2022-08-29T10:30:16.646Z,28.2
2022-08-29T10:35:57.131Z,28.7
2022-08-29T10:41:41.176Z,28.9
2022-08-29T10:47:31.536Z,29.8
2022-08-29T10:53:14.515Z,29.6
2022-08-29T10:58:54.836Z,29.3
2022-08-29T11:04:34.750Z,29
2022-08-29T11:10:14.992Z,29.4
2022-08-29T11:15:56.986Z,30.1
2022-08-29T11:21:37.820Z,31.2
2022-08-29T11:27:20.255Z,30.5
2022-08-29T11:33:01.344Z,32.2
2022-08-29T11:38:42.131Z,31.9
2022-08-29T11:44:21.558Z,30.3
2022-08-29T11:50:08.582Z,30.8
2022-08-29T11:55:54.111Z,30.1
2022-08-29T12:01:34.174Z,29.6
2022-08-29T12:07:15.231Z,31.6
2022-08-29T12:12:56.704Z,31.8
2022-08-29T12:18:37.647Z,32
2022-08-29T12:24:17.998Z,29.2
2022-08-29T12:29:57.949Z,27.8
2022-08-29T12:35:38.204Z,28.5
2022-08-29T12:41:19.018Z,29.7
2022-08-29T12:47:00.299Z,30.6
2022-08-29T12:52:44.624Z,29.7
2022-08-29T12:58:24.727Z,28.4
2022-08-29T13:04:05.075Z,29
2022-08-29T13:09:45.223Z,28.3
2022-08-29T13:15:25.862Z,27.6
2022-08-29T13:21:20.596Z,27.6
2022-08-29T13:27:15.034Z,29.2
2022-08-29T13:39:18.578Z,31.5
2022-08-29T13:44:58.900Z,31.5
2022-08-29T13:50:39.241Z,31.3
2022-08-29T14:02:29.909Z,31.1
2022-08-29T14:08:11.355Z,30.8
2022-08-29T14:14:07.800Z,30.5
2022-08-29T14:19:55.197Z,30.6
2022-08-29T14:25:35.537Z,29.2
2022-08-29T14:31:19.553Z,28.5
2022-08-29T14:37:03.045Z,27.8
2022-08-29T14:42:46.224Z,27.5
2022-08-29T14:48:38.268Z,27
2022-08-29T14:54:23.117Z,26.7
2022-08-29T15:00:03.652Z,26.1
2022-08-29T15:05:44.047Z,25.9
2022-08-29T15:11:34.069Z,26
2022-08-29T15:17:32.161Z,25.5
2022-08-29T15:23:19.242Z,25.3
2022-08-29T15:29:05.746Z,25.3
2022-08-29T15:34:46.189Z,25
2022-08-29T15:40:26.334Z,25
2022-08-29T15:46:07.452Z,25
2022-08-29T15:51:49.192Z,25.1
2022-08-29T15:57:32.938Z,25
2022-08-29T16:03:33.446Z,25.1
2022-08-29T16:09:15.478Z,25.2
2022-08-29T16:14:59.899Z,25
2022-08-29T16:21:02.020Z,24.7
2022-08-29T16:26:45.564Z,24.5
2022-08-29T16:32:26.388Z,24.6
2022-08-29T16:38:06.614Z,24.5
2022-08-29T16:43:47.010Z,24.3
2022-08-29T16:49:27.190Z,24
2022-08-29T16:55:07.574Z,23.7
2022-08-29T17:00:47.694Z,23.6
2022-08-29T17:06:27.611Z,23.4
2022-08-29T17:12:07.989Z,23.3
2022-08-29T17:17:50.084Z,23.2
2022-08-29T17:23:30.444Z,22.9
2022-08-29T17:29:11.092Z,22.6
2022-08-29T17:34:51.374Z,22.3
2022-08-29T17:40:31.813Z,22.2
2022-08-29T17:46:23.536Z,22.2
2022-08-29T17:52:04.697Z,22.2
2022-08-29T17:57:56.083Z,22.3
2022-08-29T18:03:36.561Z,22.1
2022-08-29T18:09:27.114Z,21.9
2022-08-29T18:15:19.238Z,21.7
2022-08-29T18:21:19.657Z,21.5
2022-08-29T18:27:03.890Z,21.4
2022-08-29T18:32:57.378Z,21.3
2022-08-29T18:38:52.163Z,21.1
2022-08-29T18:45:09.018Z,21
2022-08-29T18:50:55.348Z,21.1
2022-08-29T18:56:41.074Z,21
2022-08-29T19:02:24.620Z,20.8
2022-08-29T19:13:19.362Z,20.4
2022-08-29T19:18:59.701Z,20.3
2022-08-29T19:24:39.819Z,20.3
2022-08-29T19:30:20.394Z,20.3
2022-08-29T19:36:00.841Z,20.3
2022-08-29T19:41:41.236Z,20.3
2022-08-29T19:47:25.424Z,20.5
2022-08-29T19:53:10.327Z,20.4
2022-08-29T19:58:50.438Z,20.2
2022-08-29T20:04:31.471Z,20.1
2022-08-29T20:10:14.966Z,20
2022-08-29T20:16:02.408Z,20
2022-08-29T20:21:43.204Z,19.9
2022-08-29T20:27:23.805Z,20
2022-08-29T20:33:04.107Z,19.9
2022-08-29T20:38:44.331Z,19.8
2022-08-29T20:44:24.835Z,19.7
2022-08-29T20:50:08.913Z,19.6
2022-08-29T20:55:49.024Z,19.5
2022-08-29T21:01:29.178Z,19.4
2022-08-29T21:07:10.203Z,19.3
2022-08-29T21:12:50.339Z,19.3
2022-08-29T21:18:33.288Z,19.3
2022-08-29T21:24:14.444Z,19.4
2022-08-29T21:29:54.597Z,19.4
2022-08-29T21:35:34.746Z,19.4
2022-08-29T21:41:15.054Z,19.1
2022-08-29T21:46:58.032Z,18.9
2022-08-29T21:52:39.563Z,18.7
2022-08-29T21:58:19.783Z,18.5
2022-08-29T22:04:01.250Z,18.4
2022-08-29T22:09:41.503Z,18.4
2022-08-29T22:15:21.720Z,18.4
2022-08-29T22:21:05.247Z,18.4
2022-08-29T22:26:45.693Z,18.3
2022-08-29T22:32:26.303Z,18.2
2022-08-29T22:38:16.507Z,18.4
2022-08-29T22:44:31.940Z,18.5
2022-08-29T22:56:25.023Z,18.8
2022-08-29T23:02:05.172Z,18.6
2022-08-29T23:07:45.944Z,18.4
2022-08-29T23:13:25.905Z,18.2
2022-08-29T23:19:11.787Z,18.1
2022-08-29T23:24:57.994Z,17.8
2022-08-29T23:30:39.296Z,17.7
2022-08-29T23:36:19.859Z,17.7
2022-08-29T23:42:00.344Z,17.8
2022-08-29T23:47:40.406Z,17.7
2022-08-29T23:53:20.600Z,17.6
2022-08-29T23:59:00.676Z,17.7
